createdAt,value
2019-05-20T00:02:25.805Z,22.10
2019-05-20T00:04:49.493Z,20.80
2019-05-20T00:07:18.045Z,20.25
2019-05-20T00:09:46.360Z,21.05
2019-05-20T00:12:14.643Z,20.55
2019-05-20T00:14:42.922Z,20.80
2019-05-20T00:17:11.236Z,20.70
2019-05-20T00:19:39.527Z,21.42
2019-05-20T00:22:07.849Z,21.12
2019-05-20T00:24:36.120Z,19.90
2019-05-20T00:27:04.428Z,22.85
2019-05-20T00:29:32.719Z,25.45
2019-05-20T00:32:01.016Z,24.07
2019-05-20T00:34:35.104Z,24.65
2019-05-20T00:36:59.340Z,21.12
2019-05-20T00:39:27.635Z,23.40
2019-05-20T00:41:55.927Z,22.32
2019-05-20T00:44:24.209Z,24.15
2019-05-20T00:46:52.506Z,24.50
2019-05-20T00:49:20.791Z,26.62
2019-05-20T00:51:49.099Z,26.52
2019-05-20T00:54:17.384Z,26.73
2019-05-20T00:56:46.651Z,26.68
2019-05-20T00:59:14.928Z,25.70
2019-05-20T01:01:43.228Z,21.85
2019-05-20T01:04:11.512Z,22.20
2019-05-20T01:06:39.817Z,22.93
2019-05-20T01:09:08.647Z,23.77
2019-05-20T01:11:36.949Z,23.52
2019-05-20T01:14:05.979Z,19.75
2019-05-20T01:16:34.352Z,23.45
2019-05-20T01:19:02.639Z,22.95
2019-05-20T01:21:30.950Z,24.70
2019-05-20T01:23:59.235Z,28.38
2019-05-20T01:26:27.538Z,28.75
2019-05-20T01:28:55.823Z,29.07
2019-05-20T01:31:24.125Z,25.00
2019-05-20T01:33:52.408Z,26.70
2019-05-20T01:36:20.722Z,24.98
2019-05-20T01:38:49.007Z,24.57
2019-05-20T01:41:17.290Z,27.20
2019-05-20T01:43:45.877Z,28.45
2019-05-20T01:46:14.456Z,27.93
2019-05-20T01:48:42.766Z,26.23
2019-05-20T01:51:11.058Z,26.50
2019-05-20T01:53:40.474Z,28.25
2019-05-20T01:56:08.756Z,31.15
2019-05-20T01:58:39.515Z,31.45
2019-05-20T02:01:07.137Z,32.23
2019-05-20T02:03:35.450Z,29.57
2019-05-20T02:06:03.743Z,28.50
2019-05-20T02:08:32.058Z,31.90
2019-05-20T02:11:00.352Z,31.75
2019-05-20T02:13:30.303Z,34.05
2019-05-20T02:16:02.876Z,36.88
2019-05-20T02:18:31.179Z,33.02
2019-05-20T02:20:59.475Z,36.20
2019-05-20T02:23:28.048Z,37.03
2019-05-20T02:25:56.337Z,36.48
2019-05-20T02:28:24.643Z,37.15
2019-05-20T02:30:56.901Z,35.33
2019-05-20T02:33:23.641Z,35.83
2019-05-20T02:35:51.914Z,36.05
2019-05-20T02:38:20.197Z,35.90
2019-05-20T02:40:48.507Z,34.65
2019-05-20T02:43:16.806Z,33.78
2019-05-20T02:45:45.097Z,35.52
2019-05-20T02:48:13.380Z,37.93
2019-05-20T02:50:41.683Z,34.50
2019-05-20T02:53:10.023Z,37.67
2019-05-20T02:55:38.278Z,38.63
2019-05-20T02:58:06.558Z,39.23
2019-05-20T03:00:34.862Z,39.10
2019-05-20T03:03:03.168Z,37.78
2019-05-20T03:05:31.476Z,37.42
2019-05-20T03:08:00.043Z,37.67
2019-05-20T03:10:28.401Z,39.65
2019-05-20T03:12:56.724Z,36.08
2019-05-20T03:15:25.395Z,39.03
2019-05-20T03:17:53.674Z,35.30
2019-05-20T03:20:22.061Z,38.05
2019-05-20T03:22:50.348Z,39.60
2019-05-20T03:25:18.778Z,41.95
2019-05-20T03:27:47.063Z,41.18
2019-05-20T03:30:15.744Z,40.25
2019-05-20T03:32:44.014Z,40.38
2019-05-20T03:35:12.661Z,41.23
2019-05-20T03:37:40.924Z,43.60
2019-05-20T03:40:10.841Z,40.40
2019-05-20T03:42:39.152Z,41.28
2019-05-20T03:45:08.514Z,42.75
2019-05-20T03:47:36.837Z,39.98
2019-05-20T03:50:07.396Z,40.17
2019-05-20T03:52:35.680Z,40.20
2019-05-20T03:55:06.507Z,40.98
2019-05-20T03:57:34.795Z,43.00
2019-05-20T04:00:04.155Z,44.23
2019-05-20T04:02:32.454Z,45.03
2019-05-20T04:05:03.072Z,46.05
2019-05-20T04:07:30.757Z,42.85
2019-05-20T04:09:59.155Z,45.08
2019-05-20T04:12:27.439Z,45.33
2019-05-20T04:14:55.845Z,44.55
2019-05-20T04:17:24.220Z,41.63
2019-05-20T04:19:52.530Z,39.78
2019-05-20T04:22:20.798Z,41.20
2019-05-20T04:24:49.143Z,43.48
2019-05-20T04:27:17.412Z,43.55
2019-05-20T04:29:45.727Z,43.48
2019-05-20T04:32:14.017Z,46.58
2019-05-20T04:34:42.304Z,44.15
2019-05-20T04:37:10.618Z,46.25
2019-05-20T04:39:38.903Z,45.60
2019-05-20T04:42:07.340Z,46.13
2019-05-20T04:44:35.674Z,48.28
2019-05-20T04:47:04.009Z,48.80
2019-05-20T04:49:32.273Z,53.25
2019-05-20T04:52:00.580Z,50.80
2019-05-20T04:54:28.869Z,52.73
2019-05-20T04:56:57.187Z,48.87
2019-05-20T04:59:25.481Z,49.08
2019-05-20T05:01:53.810Z,48.55
2019-05-20T05:04:22.100Z,50.12
2019-05-20T05:06:50.410Z,51.75
2019-05-20T05:09:18.704Z,52.15
2019-05-20T05:11:47.142Z,51.00
2019-05-20T05:14:15.422Z,48.87
2019-05-20T05:16:43.734Z,51.68
2019-05-20T05:19:12.022Z,50.67
2019-05-20T05:21:40.429Z,49.38
2019-05-20T05:24:08.871Z,50.85
2019-05-20T05:26:37.282Z,52.88
2019-05-20T05:29:05.623Z,54.83
2019-05-20T05:31:33.931Z,54.23
2019-05-20T05:34:02.234Z,57.85
2019-05-20T05:36:30.538Z,60.03
2019-05-20T05:38:58.944Z,55.12
2019-05-20T05:41:27.253Z,55.03
2019-05-20T05:43:55.553Z,53.92
2019-05-20T05:46:23.876Z,55.83
2019-05-20T05:48:52.190Z,58.73
2019-05-20T05:51:20.545Z,57.30
2019-05-20T05:53:48.837Z,58.90
2019-05-20T05:56:17.150Z,59.67
2019-05-20T05:58:45.437Z,59.53
2019-05-20T06:01:13.743Z,57.53
2019-05-20T06:03:42.038Z,60.20
2019-05-20T06:06:13.297Z,58.05
2019-05-20T06:08:41.276Z,60.75
2019-05-20T06:11:09.593Z,64.80
2019-05-20T06:13:37.868Z,57.03
2019-05-20T06:16:06.202Z,62.85
2019-05-20T06:18:34.489Z,58.25
2019-05-20T06:21:02.822Z,59.90
2019-05-20T06:23:31.094Z,50.50
2019-05-20T06:25:59.391Z,59.73
2019-05-20T06:28:27.717Z,53.98
2019-05-20T06:30:56.006Z,52.98
2019-05-20T06:33:24.316Z,58.25
2019-05-20T06:35:52.635Z,58.08
2019-05-20T06:38:34.678Z,60.35
2019-05-20T06:41:03.873Z,57.50
2019-05-20T06:43:32.841Z,58.52
2019-05-20T06:46:01.148Z,59.33
2019-05-20T06:48:29.445Z,58.10
2019-05-20T06:50:57.771Z,59.50
2019-05-20T06:53:26.056Z,56.90
2019-05-20T06:55:54.349Z,58.17
2019-05-20T06:58:22.652Z,60.88
2019-05-20T07:00:50.955Z,60.35
2019-05-20T07:03:19.277Z,59.60
2019-05-20T07:05:47.572Z,59.73
2019-05-20T07:08:15.944Z,61.48
2019-05-20T07:10:45.676Z,61.70
2019-05-20T07:13:16.157Z,63.23
2019-05-20T07:15:44.004Z,60.70
2019-05-20T07:18:12.412Z,61.00
2019-05-20T07:20:40.720Z,62.43
2019-05-20T07:23:09.022Z,57.67
2019-05-20T07:25:37.568Z,63.58
2019-05-20T07:28:05.913Z,60.92
2019-05-20T07:30:34.179Z,63.42
2019-05-20T07:33:02.530Z,63.87
2019-05-20T07:35:31.295Z,62.70
2019-05-20T07:37:59.804Z,63.15
2019-05-20T07:40:32.103Z,68.17
2019-05-20T07:43:00.761Z,65.17
2019-05-20T07:45:31.320Z,69.22
2019-05-20T07:47:59.987Z,63.13
2019-05-20T07:50:28.943Z,67.08
2019-05-20T07:53:00.414Z,69.90
2019-05-20T07:55:29.933Z,68.52
2019-05-20T07:58:01.038Z,67.45
2019-05-20T08:00:29.310Z,66.92
2019-05-20T08:02:57.633Z,64.27
2019-05-20T08:05:25.935Z,57.85
2019-05-20T08:07:54.249Z,56.83
2019-05-20T08:10:22.597Z,58.08
2019-05-20T08:12:50.908Z,56.75
2019-05-20T08:15:19.207Z,50.00
2019-05-20T08:17:47.493Z,51.40
2019-05-20T08:20:16.139Z,49.65
2019-05-20T08:22:44.435Z,49.50
2019-05-20T08:25:12.760Z,53.42
2019-05-20T08:27:41.042Z,50.55
2019-05-20T08:30:14.182Z,48.55
2019-05-20T08:32:42.273Z,47.05
2019-05-20T08:35:10.654Z,47.00
2019-05-20T08:37:45.267Z,46.80
2019-05-20T08:40:09.012Z,45.08
2019-05-20T08:42:37.327Z,43.20
2019-05-20T08:45:07.303Z,43.17
2019-05-20T08:47:35.675Z,43.52
2019-05-20T08:50:08.425Z,45.45
2019-05-20T08:52:35.582Z,46.58
2019-05-20T08:55:03.955Z,43.55
2019-05-20T08:57:32.244Z,46.15
2019-05-20T09:00:00.577Z,45.98
2019-05-20T09:02:28.865Z,45.98
2019-05-20T09:04:57.260Z,45.63
2019-05-20T09:07:25.561Z,45.03
2019-05-20T09:09:53.879Z,41.55
2019-05-20T09:12:22.180Z,44.13
2019-05-20T09:14:50.488Z,41.90
2019-05-20T09:17:18.815Z,41.23
2019-05-20T09:19:47.408Z,42.48
2019-05-20T09:22:15.877Z,40.63
2019-05-20T09:24:44.309Z,41.58
2019-05-20T09:27:12.619Z,43.02
2019-05-20T09:29:40.919Z,44.58
2019-05-20T09:32:09.304Z,44.27
2019-05-20T09:34:37.620Z,45.25
2019-05-20T09:37:05.907Z,44.27
2019-05-20T09:39:34.229Z,42.55
2019-05-20T09:42:02.528Z,43.05
2019-05-20T09:44:30.855Z,44.40
2019-05-20T09:46:59.127Z,42.45
2019-05-20T09:49:27.747Z,47.80
2019-05-20T09:51:56.064Z,48.00
2019-05-20T09:54:24.357Z,47.85
2019-05-20T09:56:52.668Z,47.93
2019-05-20T09:59:20.958Z,46.05
2019-05-20T10:01:49.984Z,47.10
2019-05-20T10:04:18.665Z,46.63
2019-05-20T10:06:47.266Z,46.25
2019-05-20T10:09:15.808Z,49.18
2019-05-20T10:11:44.109Z,46.65
2019-05-20T10:14:12.401Z,49.15
2019-05-20T10:16:40.725Z,46.88
2019-05-20T10:19:09.043Z,49.95
2019-05-20T10:21:37.304Z,51.73
2019-05-20T10:24:05.665Z,48.35
2019-05-20T10:26:33.969Z,49.13
2019-05-20T10:29:02.257Z,51.10
2019-05-20T10:31:30.575Z,48.70
2019-05-20T10:33:58.849Z,48.13
2019-05-20T10:36:27.167Z,49.65
2019-05-20T10:38:59.061Z,47.98
2019-05-20T10:41:29.529Z,45.52
2019-05-20T10:43:57.163Z,47.00
2019-05-20T10:46:25.479Z,48.75
2019-05-20T10:48:53.752Z,50.08
2019-05-20T10:51:22.094Z,49.83
2019-05-20T10:53:50.356Z,49.05
2019-05-20T10:56:18.666Z,46.88
2019-05-20T10:58:47.023Z,44.93
2019-05-20T11:01:15.321Z,48.25
2019-05-20T11:03:43.600Z,51.05
2019-05-20T11:06:12.160Z,51.42
2019-05-20T11:08:40.803Z,48.15
2019-05-20T11:11:13.838Z,51.40
2019-05-20T11:13:39.153Z,50.25
2019-05-20T11:16:07.459Z,46.55
2019-05-20T11:18:35.745Z,49.85
2019-05-20T11:21:04.060Z,49.05
2019-05-20T11:23:32.352Z,45.75
2019-05-20T11:26:00.651Z,43.33
2019-05-20T11:28:28.909Z,45.33
2019-05-20T11:30:57.316Z,43.75
2019-05-20T11:33:25.622Z,46.30
2019-05-20T11:35:53.910Z,42.20
2019-05-20T11:38:22.222Z,40.92
2019-05-20T11:40:50.510Z,40.00
2019-05-20T11:43:18.894Z,39.40
2019-05-20T11:45:47.263Z,40.08
2019-05-20T11:48:15.588Z,36.93
2019-05-20T11:50:43.876Z,34.08
2019-05-20T11:53:12.189Z,35.35
2019-05-20T11:55:40.787Z,35.92
2019-05-20T11:58:15.906Z,35.13
2019-05-20T12:00:39.146Z,34.10
2019-05-20T12:03:07.439Z,36.83
2019-05-20T12:05:35.756Z,38.63
2019-05-20T12:08:04.116Z,41.70
2019-05-20T12:10:32.406Z,36.35
2019-05-20T12:13:00.708Z,32.53
2019-05-20T12:15:29.000Z,35.55
2019-05-20T12:17:57.371Z,35.28
2019-05-20T12:20:25.659Z,34.53
2019-05-20T12:22:53.963Z,31.73
2019-05-20T12:25:22.249Z,33.70
2019-05-20T12:27:50.635Z,32.17
2019-05-20T12:30:19.140Z,34.75
2019-05-20T12:32:47.427Z,37.40
2019-05-20T12:35:15.741Z,37.85
2019-05-20T12:37:45.774Z,40.08
2019-05-20T12:40:14.663Z,39.33
2019-05-20T12:42:42.977Z,40.05
2019-05-20T12:45:11.832Z,41.05
2019-05-20T12:47:40.175Z,36.45
2019-05-20T12:50:09.175Z,36.95
2019-05-20T12:52:37.580Z,35.95
2019-05-20T12:55:09.487Z,33.90
2019-05-20T12:57:36.603Z,40.40
2019-05-20T13:00:11.872Z,40.33
2019-05-20T13:02:41.598Z,39.83
2019-05-20T13:05:10.339Z,36.55
2019-05-20T13:07:38.648Z,37.80
2019-05-20T13:10:28.053Z,36.33
2019-05-20T13:12:41.119Z,34.08
2019-05-20T13:15:10.557Z,38.40
2019-05-20T13:17:43.731Z,40.50
2019-05-20T13:20:09.384Z,40.60
2019-05-20T13:22:37.988Z,41.15
2019-05-20T13:25:07.048Z,41.37
2019-05-20T13:27:35.334Z,40.33
2019-05-20T13:30:07.288Z,40.35
2019-05-20T13:32:35.551Z,38.78
2019-05-20T13:35:05.361Z,36.75
2019-05-20T13:37:33.642Z,36.85
2019-05-20T13:40:03.246Z,35.88
2019-05-20T13:42:32.305Z,36.08
2019-05-20T13:45:00.617Z,37.67
2019-05-20T13:47:28.917Z,35.20
2019-05-20T13:49:57.241Z,39.10
2019-05-20T13:52:25.526Z,40.00
2019-05-20T13:54:53.841Z,39.10
2019-05-20T13:57:22.795Z,39.90
2019-05-20T13:59:51.098Z,39.05
2019-05-20T14:02:19.657Z,38.02
2019-05-20T14:04:47.992Z,38.92
2019-05-20T14:07:16.248Z,38.63
2019-05-20T14:09:44.547Z,41.28
2019-05-20T14:12:12.835Z,41.45
2019-05-20T14:14:41.135Z,43.02
2019-05-20T14:17:09.492Z,42.10
2019-05-20T14:19:37.806Z,43.28
2019-05-20T14:22:06.085Z,40.92
2019-05-20T14:24:34.392Z,44.88
2019-05-20T14:27:02.796Z,41.02
2019-05-20T14:29:31.065Z,43.20
2019-05-20T14:31:59.371Z,43.75
2019-05-20T14:34:27.682Z,41.83
2019-05-20T14:36:55.978Z,41.45
2019-05-20T14:39:24.292Z,42.53
2019-05-20T14:41:52.582Z,42.90
2019-05-20T14:44:20.908Z,43.20
2019-05-20T14:46:49.225Z,44.45
2019-05-20T14:49:17.535Z,43.75
2019-05-20T14:51:45.858Z,40.60
2019-05-20T14:54:14.145Z,42.38
2019-05-20T14:56:42.455Z,39.48
2019-05-20T14:59:10.757Z,39.92
2019-05-20T15:01:39.211Z,39.05
2019-05-20T15:04:07.503Z,41.77
2019-05-20T15:06:35.806Z,44.50
2019-05-20T15:09:05.445Z,43.58
2019-05-20T15:11:37.985Z,45.20
2019-05-20T15:14:04.142Z,41.00
2019-05-20T15:16:32.446Z,42.90
2019-05-20T15:19:00.739Z,46.13
2019-05-20T15:21:29.775Z,45.43
2019-05-20T15:23:58.337Z,43.08
2019-05-20T15:26:26.645Z,44.10
2019-05-20T15:28:54.922Z,43.50
2019-05-20T15:31:23.228Z,44.67
2019-05-20T15:33:51.714Z,46.55
2019-05-20T15:36:19.994Z,46.98
2019-05-20T15:38:48.294Z,45.85
2019-05-20T15:41:16.592Z,47.45
2019-05-20T15:43:45.222Z,46.40
2019-05-20T15:46:13.533Z,45.58
2019-05-20T15:48:41.821Z,44.58
2019-05-20T15:51:10.150Z,43.23
2019-05-20T15:53:38.434Z,43.48
2019-05-20T15:56:06.744Z,43.70
2019-05-20T15:58:35.038Z,44.23
2019-05-20T16:01:03.340Z,44.30
2019-05-20T16:03:31.649Z,49.85
2019-05-20T16:06:00.305Z,50.38
2019-05-20T16:08:28.650Z,49.70
2019-05-20T16:10:56.997Z,47.73
2019-05-20T16:13:25.279Z,43.65
2019-05-20T16:15:53.594Z,45.80
2019-05-20T16:18:21.882Z,45.78
2019-05-20T16:20:50.213Z,43.15
2019-05-20T16:23:18.529Z,40.15
2019-05-20T16:25:46.807Z,41.83
2019-05-20T16:28:15.133Z,33.75
2019-05-20T16:30:43.416Z,36.33
2019-05-20T16:33:11.718Z,28.23
2019-05-20T16:35:40.399Z,24.37
2019-05-20T16:38:08.990Z,23.47
2019-05-20T16:40:37.306Z,24.10
2019-05-20T16:43:05.591Z,20.70
2019-05-20T16:45:34.231Z,22.25
2019-05-20T16:48:02.539Z,23.47
2019-05-20T16:50:30.824Z,25.97
2019-05-20T16:52:59.139Z,31.93
2019-05-20T16:55:27.423Z,30.92
2019-05-20T16:57:55.731Z,31.35
2019-05-20T17:00:31.302Z,42.50
2019-05-20T17:02:54.135Z,56.63
2019-05-20T17:05:22.717Z,63.25
2019-05-20T17:07:51.058Z,72.92
2019-05-20T17:10:19.402Z,71.42
2019-05-20T17:12:47.713Z,68.42
2019-05-20T17:15:16.876Z,75.37
2019-05-20T17:17:45.190Z,60.92
2019-05-20T17:20:13.659Z,54.85
2019-05-20T17:22:41.965Z,57.38
2019-05-20T17:25:10.328Z,54.60
2019-05-20T17:27:38.647Z,50.58
2019-05-20T17:30:07.394Z,44.13
2019-05-20T17:32:35.714Z,47.38
2019-05-20T17:35:04.301Z,49.55
2019-05-20T17:37:32.679Z,55.75
2019-05-20T17:40:00.993Z,59.40
2019-05-20T17:42:29.535Z,57.25
2019-05-20T17:44:57.815Z,60.65
2019-05-20T17:47:26.196Z,60.95
2019-05-20T17:49:54.500Z,65.32
2019-05-20T17:52:23.063Z,61.08
2019-05-20T17:54:51.384Z,60.15
2019-05-20T17:57:19.721Z,64.92
2019-05-20T17:59:47.987Z,61.58
2019-05-20T18:02:16.616Z,63.30
2019-05-20T18:04:44.891Z,63.25
2019-05-20T18:07:13.198Z,62.55
2019-05-20T18:09:43.201Z,64.55
2019-05-20T18:12:11.949Z,65.25
2019-05-20T18:14:41.510Z,67.78
2019-05-20T18:17:10.163Z,68.90
2019-05-20T18:19:38.450Z,67.85
2019-05-20T18:22:06.838Z,62.93
2019-05-20T18:24:35.130Z,60.65
2019-05-20T18:27:03.490Z,62.25
2019-05-20T18:29:31.785Z,56.65
2019-05-20T18:32:00.071Z,63.80
2019-05-20T18:34:28.375Z,65.62
2019-05-20T18:36:56.666Z,60.67
2019-05-20T18:39:25.291Z,63.48
2019-05-20T18:41:53.602Z,67.20
2019-05-20T18:44:21.875Z,61.75
2019-05-20T18:46:50.180Z,62.80
2019-05-20T18:49:18.475Z,61.92
2019-05-20T18:51:46.775Z,63.00
2019-05-20T18:54:15.092Z,60.90
2019-05-20T18:56:43.410Z,60.63
2019-05-20T18:59:11.783Z,60.52
2019-05-20T19:01:55.762Z,57.98
2019-05-20T19:04:10.139Z,56.23
2019-05-20T19:06:38.405Z,58.13
2019-05-20T19:09:07.554Z,59.00
2019-05-20T19:11:35.835Z,58.02
2019-05-20T19:14:08.143Z,57.33
2019-05-20T19:16:34.341Z,58.25
2019-05-20T19:19:02.657Z,57.50
2019-05-20T19:21:30.947Z,59.18
2019-05-20T19:23:59.266Z,59.50
2019-05-20T19:26:27.549Z,58.48
2019-05-20T19:28:55.857Z,57.50
2019-05-20T19:31:24.153Z,57.23
2019-05-20T19:33:52.492Z,56.30
2019-05-20T19:36:20.776Z,54.00
2019-05-20T19:38:49.080Z,53.08
2019-05-20T19:41:17.383Z,54.33
2019-05-20T19:43:45.695Z,56.42
2019-05-20T19:46:13.969Z,53.90
2019-05-20T19:48:42.289Z,50.50
2019-05-20T19:51:10.603Z,49.55
2019-05-20T19:53:38.895Z,48.78
2019-05-20T19:56:07.207Z,46.65
2019-05-20T19:58:35.527Z,47.25
2019-05-20T20:01:03.806Z,43.05
2019-05-20T20:03:32.110Z,43.83
2019-05-20T20:06:00.397Z,41.83
2019-05-20T20:08:28.709Z,42.00
2019-05-20T20:10:56.988Z,42.90
2019-05-20T20:13:25.297Z,41.40
2019-05-20T20:15:53.591Z,42.60
2019-05-20T20:18:21.892Z,43.58
2019-05-20T20:20:50.181Z,43.40
2019-05-20T20:23:18.542Z,44.03
2019-05-20T20:25:46.873Z,44.33
2019-05-20T20:28:15.156Z,43.35
2019-05-20T20:30:43.472Z,42.58
2019-05-20T20:33:11.755Z,41.08
2019-05-20T20:35:40.079Z,44.23
2019-05-20T20:38:08.394Z,45.38
2019-05-20T20:40:36.740Z,45.65
2019-05-20T20:43:05.034Z,45.48
2019-05-20T20:45:33.411Z,44.38
2019-05-20T20:48:01.705Z,44.80
2019-05-20T20:50:30.080Z,44.48
2019-05-20T20:52:58.362Z,46.30
2019-05-20T20:55:26.669Z,45.73
2019-05-20T20:57:54.952Z,47.65
2019-05-20T21:00:23.254Z,46.98
2019-05-20T21:02:53.615Z,48.13
2019-05-20T21:05:21.590Z,49.15
2019-05-20T21:07:51.796Z,47.95
2019-05-20T21:10:19.923Z,47.35
2019-05-20T21:12:48.208Z,48.38
2019-05-20T21:15:16.510Z,48.73
2019-05-20T21:17:44.790Z,48.70
2019-05-20T21:20:13.172Z,47.33
2019-05-20T21:22:41.461Z,48.30
2019-05-20T21:25:09.938Z,49.23
2019-05-20T21:27:38.216Z,47.08
2019-05-20T21:30:08.383Z,46.13
2019-05-20T21:32:36.613Z,47.83
2019-05-20T21:35:05.757Z,46.80
2019-05-20T21:37:34.042Z,48.30
2019-05-20T21:40:02.559Z,49.35
2019-05-20T21:42:30.847Z,45.92
2019-05-20T21:44:59.169Z,46.33
2019-05-20T21:47:27.436Z,46.50
2019-05-20T21:49:55.747Z,47.40
2019-05-20T21:52:24.282Z,45.90
2019-05-20T21:54:52.590Z,46.98
2019-05-20T21:57:20.891Z,45.12
2019-05-20T21:59:49.198Z,44.38
2019-05-20T22:02:17.481Z,43.87
2019-05-20T22:04:45.801Z,41.98
2019-05-20T22:07:14.087Z,42.45
2019-05-20T22:09:42.406Z,42.60
2019-05-20T22:12:10.704Z,43.52
2019-05-20T22:14:39.345Z,42.33
2019-05-20T22:17:07.633Z,41.85
2019-05-20T22:19:35.912Z,42.62
2019-05-20T22:22:17.459Z,47.13
2019-05-20T22:24:45.751Z,50.35
2019-05-20T22:27:14.054Z,47.35
2019-05-20T22:29:42.338Z,51.20
2019-05-20T22:32:10.647Z,48.42
2019-05-20T22:34:51.468Z,48.85
2019-05-20T22:37:08.968Z,46.00
2019-05-20T22:39:37.313Z,44.95
2019-05-20T22:42:05.627Z,43.13
2019-05-20T22:44:33.912Z,39.95
2019-05-20T22:47:02.225Z,38.40
2019-05-20T22:49:30.515Z,34.55
2019-05-20T22:51:58.836Z,35.30
2019-05-20T22:54:27.108Z,35.83
2019-05-20T22:56:55.430Z,36.10
2019-05-20T22:59:23.721Z,35.20
2019-05-20T23:01:52.093Z,35.88
2019-05-20T23:04:20.384Z,38.00
2019-05-20T23:06:48.689Z,41.42
2019-05-20T23:09:16.969Z,43.70
2019-05-20T23:11:45.283Z,41.02
2019-05-20T23:14:13.575Z,40.85
2019-05-20T23:16:41.878Z,40.55
2019-05-20T23:19:10.160Z,41.95
2019-05-20T23:21:38.467Z,40.88
2019-05-20T23:24:06.757Z,40.10
2019-05-20T23:26:35.056Z,39.25
2019-05-20T23:29:03.357Z,40.73
2019-05-20T23:31:31.640Z,41.55
2019-05-20T23:34:12.176Z,39.67
2019-05-20T23:36:29.958Z,40.75
2019-05-20T23:38:58.266Z,40.35
2019-05-20T23:41:26.544Z,38.65
2019-05-20T23:43:54.848Z,40.45
2019-05-20T23:46:23.137Z,39.88
2019-05-20T23:48:51.541Z,39.33
2019-05-20T23:51:19.827Z,40.30
2019-05-20T23:53:48.127Z,37.90
2019-05-20T23:56:16.411Z,42.83
2019-05-20T23:58:44.738Z,42.00
